sensor_id;sensor_type;location;lat;lon;timestamp;P1;durP1;ratioP1;P2;durP2;ratioP2
53775;SDS011;44276;49.534;6.378;2023-05-18T00:00:04;12.77;;;5.68;;
53775;SDS011;44276;49.534;6.378;2023-05-18T00:02:40;9.18;;;6.30;;
53775;SDS011;44276;49.534;6.378;2023-05-18T00:05:09;13.27;;;7.03;;
53775;SDS011;44276;49.534;6.378;2023-05-18T00:07:37;14.98;;;7.00;;
53775;SDS011;44276;49.534;6.378;2023-05-18T00:10:06;9.43;;;5.70;;
53775;SDS011;44276;49.534;6.378;2023-05-18T00:12:36;17.05;;;7.10;;
53775;SDS011;44276;49.534;6.378;2023-05-18T00:15:05;13.75;;;5.78;;
53775;SDS011;44276;49.534;6.378;2023-05-18T00:17:35;16.92;;;6.03;;
53775;SDS011;44276;49.534;6.378;2023-05-18T00:20:05;12.32;;;6.55;;
53775;SDS011;44276;49.534;6.378;2023-05-18T00:22:35;11.27;;;5.95;;
53775;SDS011;44276;49.534;6.378;2023-05-18T00:25:04;14.30;;;6.55;;
53775;SDS011;44276;49.534;6.378;2023-05-18T00:27:32;13.25;;;6.35;;
53775;SDS011;44276;49.534;6.378;2023-05-18T00:30:01;15.95;;;6.65;;
53775;SDS011;44276;49.534;6.378;2023-05-18T00:32:30;16.65;;;6.05;;
53775;SDS011;44276;49.534;6.378;2023-05-18T00:34:59;18.35;;;7.80;;
53775;SDS011;44276;49.534;6.378;2023-05-18T00:37:29;12.02;;;5.53;;
53775;SDS011;44276;49.534;6.378;2023-05-18T00:39:57;17.50;;;6.57;;
53775;SDS011;44276;49.534;6.378;2023-05-18T00:42:25;12.18;;;5.88;;
53775;SDS011;44276;49.534;6.378;2023-05-18T00:44:53;12.30;;;5.53;;
53775;SDS011;44276;49.534;6.378;2023-05-18T00:47:21;16.70;;;6.28;;
53775;SDS011;44276;49.534;6.378;2023-05-18T00:49:50;13.25;;;6.47;;
53775;SDS011;44276;49.534;6.378;2023-05-18T00:52:18;10.02;;;6.60;;
53775;SDS011;44276;49.534;6.378;2023-05-18T00:54:49;16.77;;;6.97;;
53775;SDS011;44276;49.534;6.378;2023-05-18T00:57:19;15.38;;;7.03;;
53775;SDS011;44276;49.534;6.378;2023-05-18T00:59:47;17.33;;;7.60;;
53775;SDS011;44276;49.534;6.378;2023-05-18T01:02:16;16.20;;;6.35;;
53775;SDS011;44276;49.534;6.378;2023-05-18T01:04:45;11.70;;;7.25;;
53775;SDS011;44276;49.534;6.378;2023-05-18T01:07:13;13.05;;;7.00;;
53775;SDS011;44276;49.534;6.378;2023-05-18T01:09:41;18.58;;;7.35;;
53775;SDS011;44276;49.534;6.378;2023-05-18T01:12:14;12.10;;;6.13;;
53775;SDS011;44276;49.534;6.378;2023-05-18T01:14:51;14.40;;;6.75;;
53775;SDS011;44276;49.534;6.378;2023-05-18T01:17:36;10.88;;;5.75;;
53775;SDS011;44276;49.534;6.378;2023-05-18T01:20:19;13.43;;;6.45;;
53775;SDS011;44276;49.534;6.378;2023-05-18T01:26:20;15.30;;;6.88;;
53775;SDS011;44276;49.534;6.378;2023-05-18T01:28:55;25.13;;;9.00;;
53775;SDS011;44276;49.534;6.378;2023-05-18T01:31:27;13.75;;;8.82;;
53775;SDS011;44276;49.534;6.378;2023-05-18T01:33:56;17.33;;;7.35;;
53775;SDS011;44276;49.534;6.378;2023-05-18T01:36:24;15.93;;;7.57;;
53775;SDS011;44276;49.534;6.378;2023-05-18T01:38:53;12.10;;;8.18;;
53775;SDS011;44276;49.534;6.378;2023-05-18T01:41:28;13.90;;;8.30;;
53775;SDS011;44276;49.534;6.378;2023-05-18T01:44:10;28.80;;;8.32;;
53775;SDS011;44276;49.534;6.378;2023-05-18T01:46:52;15.43;;;8.98;;
53775;SDS011;44276;49.534;6.378;2023-05-18T01:49:28;17.95;;;7.25;;
53775;SDS011;44276;49.534;6.378;2023-05-18T01:52:02;17.30;;;7.25;;
53775;SDS011;44276;49.534;6.378;2023-05-18T01:54:37;17.08;;;7.05;;
53775;SDS011;44276;49.534;6.378;2023-05-18T01:57:12;23.85;;;10.10;;
53775;SDS011;44276;49.534;6.378;2023-05-18T01:59:44;14.20;;;7.93;;
53775;SDS011;44276;49.534;6.378;2023-05-18T02:02:14;12.98;;;7.57;;
53775;SDS011;44276;49.534;6.378;2023-05-18T02:04:42;20.20;;;7.40;;
53775;SDS011;44276;49.534;6.378;2023-05-18T02:07:10;14.52;;;6.63;;
53775;SDS011;44276;49.534;6.378;2023-05-18T02:09:39;17.30;;;8.18;;
53775;SDS011;44276;49.534;6.378;2023-05-18T02:12:08;22.67;;;8.88;;
53775;SDS011;44276;49.534;6.378;2023-05-18T02:14:37;19.80;;;9.43;;
53775;SDS011;44276;49.534;6.378;2023-05-18T02:17:05;11.60;;;6.43;;
53775;SDS011;44276;49.534;6.378;2023-05-18T02:19:33;31.67;;;7.45;;
53775;SDS011;44276;49.534;6.378;2023-05-18T02:22:03;20.25;;;7.15;;
53775;SDS011;44276;49.534;6.378;2023-05-18T02:24:33;12.95;;;8.60;;
53775;SDS011;44276;49.534;6.378;2023-05-18T02:27:01;14.15;;;6.90;;
53775;SDS011;44276;49.534;6.378;2023-05-18T02:29:32;17.58;;;7.90;;
53775;SDS011;44276;49.534;6.378;2023-05-18T02:32:01;24.55;;;7.82;;
53775;SDS011;44276;49.534;6.378;2023-05-18T02:34:30;12.02;;;7.65;;
53775;SDS011;44276;49.534;6.378;2023-05-18T02:36:59;12.68;;;6.72;;
53775;SDS011;44276;49.534;6.378;2023-05-18T02:39:28;25.30;;;10.00;;
53775;SDS011;44276;49.534;6.378;2023-05-18T02:41:59;15.70;;;7.85;;
53775;SDS011;44276;49.534;6.378;2023-05-18T02:44:27;14.60;;;7.30;;
53775;SDS011;44276;49.534;6.378;2023-05-18T02:46:55;18.67;;;7.15;;
53775;SDS011;44276;49.534;6.378;2023-05-18T02:49:24;16.95;;;8.02;;
53775;SDS011;44276;49.534;6.378;2023-05-18T02:51:52;16.48;;;8.10;;
53775;SDS011;44276;49.534;6.378;2023-05-18T02:54:20;11.43;;;5.93;;
53775;SDS011;44276;49.534;6.378;2023-05-18T02:56:49;15.82;;;6.88;;
53775;SDS011;44276;49.534;6.378;2023-05-18T02:59:17;10.82;;;6.53;;
53775;SDS011;44276;49.534;6.378;2023-05-18T03:01:45;16.90;;;7.30;;
53775;SDS011;44276;49.534;6.378;2023-05-18T03:04:13;14.20;;;7.72;;
53775;SDS011;44276;49.534;6.378;2023-05-18T03:06:44;14.18;;;7.63;;
53775;SDS011;44276;49.534;6.378;2023-05-18T03:09:12;20.48;;;6.60;;
53775;SDS011;44276;49.534;6.378;2023-05-18T03:11:41;20.95;;;7.60;;
53775;SDS011;44276;49.534;6.378;2023-05-18T03:14:10;15.07;;;7.28;;
53775;SDS011;44276;49.534;6.378;2023-05-18T03:16:38;9.65;;;6.78;;
53775;SDS011;44276;49.534;6.378;2023-05-18T03:19:06;17.23;;;8.73;;
53775;SDS011;44276;49.534;6.378;2023-05-18T03:21:34;17.85;;;8.55;;
53775;SDS011;44276;49.534;6.378;2023-05-18T03:24:04;11.23;;;6.60;;
53775;SDS011;44276;49.534;6.378;2023-05-18T03:26:32;18.80;;;7.50;;
53775;SDS011;44276;49.534;6.378;2023-05-18T03:29:01;17.05;;;6.95;;
53775;SDS011;44276;49.534;6.378;2023-05-18T03:31:29;17.35;;;6.65;;
53775;SDS011;44276;49.534;6.378;2023-05-18T03:33:57;17.33;;;6.75;;
53775;SDS011;44276;49.534;6.378;2023-05-18T03:36:25;14.05;;;7.85;;
53775;SDS011;44276;49.534;6.378;2023-05-18T03:38:54;19.67;;;7.30;;
53775;SDS011;44276;49.534;6.378;2023-05-18T03:41:23;11.75;;;6.38;;
53775;SDS011;44276;49.534;6.378;2023-05-18T03:43:51;24.48;;;8.55;;
53775;SDS011;44276;49.534;6.378;2023-05-18T03:46:19;15.35;;;6.20;;
53775;SDS011;44276;49.534;6.378;2023-05-18T03:48:47;16.48;;;7.00;;
53775;SDS011;44276;49.534;6.378;2023-05-18T03:51:16;15.40;;;6.88;;
53775;SDS011;44276;49.534;6.378;2023-05-18T03:53:44;17.85;;;6.53;;
53775;SDS011;44276;49.534;6.378;2023-05-18T03:56:13;18.67;;;9.18;;
53775;SDS011;44276;49.534;6.378;2023-05-18T03:58:42;14.18;;;6.60;;
53775;SDS011;44276;49.534;6.378;2023-05-18T04:01:10;14.63;;;7.75;;
53775;SDS011;44276;49.534;6.378;2023-05-18T04:03:40;11.93;;;7.32;;
53775;SDS011;44276;49.534;6.378;2023-05-18T04:06:09;14.85;;;7.30;;
53775;SDS011;44276;49.534;6.378;2023-05-18T04:08:37;18.75;;;8.40;;
53775;SDS011;44276;49.534;6.378;2023-05-18T04:11:07;13.75;;;6.53;;
53775;SDS011;44276;49.534;6.378;2023-05-18T04:13:36;25.73;;;6.93;;
53775;SDS011;44276;49.534;6.378;2023-05-18T04:16:06;14.70;;;7.18;;
53775;SDS011;44276;49.534;6.378;2023-05-18T04:18:38;9.88;;;6.25;;
53775;SDS011;44276;49.534;6.378;2023-05-18T04:21:07;17.10;;;6.70;;
53775;SDS011;44276;49.534;6.378;2023-05-18T04:23:36;11.82;;;7.13;;
53775;SDS011;44276;49.534;6.378;2023-05-18T04:26:06;16.90;;;5.85;;
53775;SDS011;44276;49.534;6.378;2023-05-18T04:28:35;15.88;;;6.25;;
53775;SDS011;44276;49.534;6.378;2023-05-18T04:31:03;14.35;;;6.95;;
53775;SDS011;44276;49.534;6.378;2023-05-18T04:33:33;12.13;;;5.45;;
53775;SDS011;44276;49.534;6.378;2023-05-18T04:36:01;10.98;;;6.53;;
53775;SDS011;44276;49.534;6.378;2023-05-18T04:38:31;19.15;;;6.90;;
53775;SDS011;44276;49.534;6.378;2023-05-18T04:41:00;12.50;;;5.57;;
53775;SDS011;44276;49.534;6.378;2023-05-18T04:43:31;15.15;;;5.85;;
53775;SDS011;44276;49.534;6.378;2023-05-18T04:46:01;10.45;;;5.55;;
53775;SDS011;44276;49.534;6.378;2023-05-18T04:48:33;11.43;;;4.75;;
53775;SDS011;44276;49.534;6.378;2023-05-18T04:51:02;11.02;;;5.43;;
53775;SDS011;44276;49.534;6.378;2023-05-18T04:53:31;14.52;;;4.97;;
53775;SDS011;44276;49.534;6.378;2023-05-18T04:56:00;12.88;;;5.80;;
53775;SDS011;44276;49.534;6.378;2023-05-18T04:58:28;8.65;;;5.32;;
53775;SDS011;44276;49.534;6.378;2023-05-18T05:00:56;12.73;;;5.25;;
53775;SDS011;44276;49.534;6.378;2023-05-18T05:03:25;11.93;;;4.40;;
53775;SDS011;44276;49.534;6.378;2023-05-18T05:05:54;9.30;;;4.60;;
53775;SDS011;44276;49.534;6.378;2023-05-18T05:08:22;26.48;;;5.32;;
53775;SDS011;44276;49.534;6.378;2023-05-18T05:10:51;12.10;;;4.65;;
53775;SDS011;44276;49.534;6.378;2023-05-18T05:13:19;10.65;;;4.03;;
53775;SDS011;44276;49.534;6.378;2023-05-18T05:15:47;12.35;;;3.58;;
53775;SDS011;44276;49.534;6.378;2023-05-18T05:18:15;11.05;;;2.42;;
53775;SDS011;44276;49.534;6.378;2023-05-18T05:20:44;8.60;;;3.60;;
53775;SDS011;44276;49.534;6.378;2023-05-18T05:23:13;9.85;;;2.72;;
53775;SDS011;44276;49.534;6.378;2023-05-18T05:25:41;7.03;;;3.67;;
53775;SDS011;44276;49.534;6.378;2023-05-18T05:28:09;3.60;;;1.67;;
53775;SDS011;44276;49.534;6.378;2023-05-18T05:30:38;4.05;;;1.83;;
53775;SDS011;44276;49.534;6.378;2023-05-18T05:33:06;5.53;;;2.55;;
53775;SDS011;44276;49.534;6.378;2023-05-18T05:35:34;9.32;;;2.33;;
53775;SDS011;44276;49.534;6.378;2023-05-18T05:38:03;10.05;;;2.80;;
53775;SDS011;44276;49.534;6.378;2023-05-18T05:40:32;5.50;;;2.20;;
53775;SDS011;44276;49.534;6.378;2023-05-18T05:43:01;9.43;;;2.97;;
53775;SDS011;44276;49.534;6.378;2023-05-18T05:45:29;6.38;;;1.75;;
53775;SDS011;44276;49.534;6.378;2023-05-18T05:47:57;8.07;;;1.80;;
53775;SDS011;44276;49.534;6.378;2023-05-18T05:50:25;8.25;;;2.08;;
53775;SDS011;44276;49.534;6.378;2023-05-18T05:52:54;12.65;;;2.10;;
53775;SDS011;44276;49.534;6.378;2023-05-18T05:55:22;10.50;;;2.58;;
53775;SDS011;44276;49.534;6.378;2023-05-18T05:57:52;6.40;;;2.03;;
53775;SDS011;44276;49.534;6.378;2023-05-18T06:00:20;10.90;;;3.72;;
53775;SDS011;44276;49.534;6.378;2023-05-18T06:02:49;6.07;;;1.80;;
53775;SDS011;44276;49.534;6.378;2023-05-18T06:05:17;4.60;;;1.42;;
53775;SDS011;44276;49.534;6.378;2023-05-18T06:07:46;3.20;;;1.35;;
53775;SDS011;44276;49.534;6.378;2023-05-18T06:10:14;8.02;;;2.22;;
53775;SDS011;44276;49.534;6.378;2023-05-18T06:12:42;11.88;;;2.17;;
53775;SDS011;44276;49.534;6.378;2023-05-18T06:15:12;8.70;;;1.83;;
53775;SDS011;44276;49.534;6.378;2023-05-18T06:17:40;7.55;;;1.45;;
53775;SDS011;44276;49.534;6.378;2023-05-18T06:20:11;7.25;;;2.15;;
53775;SDS011;44276;49.534;6.378;2023-05-18T06:22:39;10.20;;;1.98;;
53775;SDS011;44276;49.534;6.378;2023-05-18T06:25:08;9.75;;;2.05;;
53775;SDS011;44276;49.534;6.378;2023-05-18T06:27:36;5.82;;;1.85;;
53775;SDS011;44276;49.534;6.378;2023-05-18T06:30:05;7.85;;;2.13;;
53775;SDS011;44276;49.534;6.378;2023-05-18T06:32:37;9.50;;;2.13;;
53775;SDS011;44276;49.534;6.378;2023-05-18T06:35:06;6.90;;;2.97;;
53775;SDS011;44276;49.534;6.378;2023-05-18T06:37:35;3.55;;;1.38;;
53775;SDS011;44276;49.534;6.378;2023-05-18T06:40:03;10.48;;;2.10;;
53775;SDS011;44276;49.534;6.378;2023-05-18T06:42:33;3.70;;;2.10;;
53775;SDS011;44276;49.534;6.378;2023-05-18T06:45:02;4.22;;;1.42;;
53775;SDS011;44276;49.534;6.378;2023-05-18T06:47:31;2.85;;;1.40;;
53775;SDS011;44276;49.534;6.378;2023-05-18T06:50:00;9.43;;;1.58;;
53775;SDS011;44276;49.534;6.378;2023-05-18T06:52:29;9.82;;;2.58;;
53775;SDS011;44276;49.534;6.378;2023-05-18T06:54:57;4.10;;;1.55;;
53775;SDS011;44276;49.534;6.378;2023-05-18T06:57:26;5.55;;;1.95;;
53775;SDS011;44276;49.534;6.378;2023-05-18T06:59:54;5.90;;;1.80;;
53775;SDS011;44276;49.534;6.378;2023-05-18T07:02:22;8.90;;;2.00;;
53775;SDS011;44276;49.534;6.378;2023-05-18T07:04:51;4.60;;;1.35;;
53775;SDS011;44276;49.534;6.378;2023-05-18T07:07:21;5.93;;;3.13;;
53775;SDS011;44276;49.534;6.378;2023-05-18T07:09:49;6.57;;;1.70;;
53775;SDS011;44276;49.534;6.378;2023-05-18T07:12:17;10.45;;;1.60;;
53775;SDS011;44276;49.534;6.378;2023-05-18T07:14:45;9.20;;;2.72;;
53775;SDS011;44276;49.534;6.378;2023-05-18T07:17:13;7.88;;;2.15;;
53775;SDS011;44276;49.534;6.378;2023-05-18T07:19:41;6.88;;;1.55;;
53775;SDS011;44276;49.534;6.378;2023-05-18T07:22:09;10.60;;;1.73;;
53775;SDS011;44276;49.534;6.378;2023-05-18T07:24:39;9.20;;;2.60;;
53775;SDS011;44276;49.534;6.378;2023-05-18T07:27:08;9.90;;;1.23;;
53775;SDS011;44276;49.534;6.378;2023-05-18T07:29:36;9.02;;;3.20;;
53775;SDS011;44276;49.534;6.378;2023-05-18T07:32:04;6.85;;;1.55;;
53775;SDS011;44276;49.534;6.378;2023-05-18T07:34:32;10.65;;;1.70;;
53775;SDS011;44276;49.534;6.378;2023-05-18T07:37:00;7.13;;;1.77;;
53775;SDS011;44276;49.534;6.378;2023-05-18T07:39:30;4.35;;;1.45;;
53775;SDS011;44276;49.534;6.378;2023-05-18T07:42:00;4.30;;;2.10;;
53775;SDS011;44276;49.534;6.378;2023-05-18T07:44:28;10.30;;;2.88;;
53775;SDS011;44276;49.534;6.378;2023-05-18T07:46:56;7.97;;;2.15;;
53775;SDS011;44276;49.534;6.378;2023-05-18T07:49:25;4.88;;;1.67;;
53775;SDS011;44276;49.534;6.378;2023-05-18T07:51:53;8.65;;;1.52;;
53775;SDS011;44276;49.534;6.378;2023-05-18T07:54:21;7.85;;;2.42;;
53775;SDS011;44276;49.534;6.378;2023-05-18T07:56:49;7.13;;;2.17;;
53775;SDS011;44276;49.534;6.378;2023-05-18T07:59:19;4.47;;;1.65;;
53775;SDS011;44276;49.534;6.378;2023-05-18T08:01:47;4.65;;;1.55;;
53775;SDS011;44276;49.534;6.378;2023-05-18T08:04:15;4.63;;;1.67;;
53775;SDS011;44276;49.534;6.378;2023-05-18T08:06:43;3.25;;;1.45;;
53775;SDS011;44276;49.534;6.378;2023-05-18T08:09:11;5.57;;;2.35;;
53775;SDS011;44276;49.534;6.378;2023-05-18T08:11:41;4.45;;;1.42;;
53775;SDS011;44276;49.534;6.378;2023-05-18T08:14:10;10.52;;;2.60;;
53775;SDS011;44276;49.534;6.378;2023-05-18T08:16:39;6.10;;;2.03;;
53775;SDS011;44276;49.534;6.378;2023-05-18T08:19:07;9.77;;;1.83;;
53775;SDS011;44276;49.534;6.378;2023-05-18T08:21:36;4.72;;;1.40;;
53775;SDS011;44276;49.534;6.378;2023-05-18T08:24:05;5.97;;;1.67;;
53775;SDS011;44276;49.534;6.378;2023-05-18T08:26:34;7.72;;;2.45;;
53775;SDS011;44276;49.534;6.378;2023-05-18T08:29:02;6.60;;;2.22;;
53775;SDS011;44276;49.534;6.378;2023-05-18T08:31:35;4.40;;;1.65;;
53775;SDS011;44276;49.534;6.378;2023-05-18T08:34:04;8.23;;;2.40;;
53775;SDS011;44276;49.534;6.378;2023-05-18T08:36:34;6.70;;;1.60;;
53775;SDS011;44276;49.534;6.378;2023-05-18T08:39:03;8.02;;;2.03;;
53775;SDS011;44276;49.534;6.378;2023-05-18T08:41:34;3.40;;;1.35;;
53775;SDS011;44276;49.534;6.378;2023-05-18T08:44:08;4.88;;;1.35;;
53775;SDS011;44276;49.534;6.378;2023-05-18T08:46:48;7.13;;;1.80;;
53775;SDS011;44276;49.534;6.378;2023-05-18T08:49:19;5.20;;;1.38;;
53775;SDS011;44276;49.534;6.378;2023-05-18T08:51:52;4.28;;;1.75;;
53775;SDS011;44276;49.534;6.378;2023-05-18T08:54:23;6.75;;;1.30;;
53775;SDS011;44276;49.534;6.378;2023-05-18T08:56:52;6.40;;;1.50;;
53775;SDS011;44276;49.534;6.378;2023-05-18T08:59:22;7.50;;;1.90;;
53775;SDS011;44276;49.534;6.378;2023-05-18T09:01:52;8.43;;;2.10;;
53775;SDS011;44276;49.534;6.378;2023-05-18T09:04:22;6.80;;;1.23;;
53775;SDS011;44276;49.534;6.378;2023-05-18T09:06:50;5.93;;;1.75;;
53775;SDS011;44276;49.534;6.378;2023-05-18T09:09:21;8.38;;;1.58;;
53775;SDS011;44276;49.534;6.378;2023-05-18T09:11:51;4.28;;;1.80;;
53775;SDS011;44276;49.534;6.378;2023-05-18T09:14:23;4.65;;;1.42;;
53775;SDS011;44276;49.534;6.378;2023-05-18T09:16:52;5.68;;;1.83;;
53775;SDS011;44276;49.534;6.378;2023-05-18T09:19:20;5.18;;;1.58;;
53775;SDS011;44276;49.534;6.378;2023-05-18T09:21:50;8.45;;;2.03;;
53775;SDS011;44276;49.534;6.378;2023-05-18T09:24:19;7.68;;;1.48;;
53775;SDS011;44276;49.534;6.378;2023-05-18T09:26:50;10.15;;;2.47;;
53775;SDS011;44276;49.534;6.378;2023-05-18T09:29:18;4.07;;;1.63;;
53775;SDS011;44276;49.534;6.378;2023-05-18T09:31:49;6.10;;;1.77;;
53775;SDS011;44276;49.534;6.378;2023-05-18T09:34:19;9.60;;;1.42;;
53775;SDS011;44276;49.534;6.378;2023-05-18T09:36:49;3.60;;;1.20;;
53775;SDS011;44276;49.534;6.378;2023-05-18T09:39:19;5.60;;;1.73;;
53775;SDS011;44276;49.534;6.378;2023-05-18T09:41:47;4.97;;;1.23;;
53775;SDS011;44276;49.534;6.378;2023-05-18T09:44:27;5.07;;;2.13;;
53775;SDS011;44276;49.534;6.378;2023-05-18T09:46:58;6.63;;;1.65;;
53775;SDS011;44276;49.534;6.378;2023-05-18T09:49:27;9.90;;;2.28;;
53775;SDS011;44276;49.534;6.378;2023-05-18T09:51:57;8.20;;;2.17;;
53775;SDS011;44276;49.534;6.378;2023-05-18T09:54:26;4.55;;;1.45;;
53775;SDS011;44276;49.534;6.378;2023-05-18T09:56:55;4.63;;;1.40;;
53775;SDS011;44276;49.534;6.378;2023-05-18T09:59:36;7.53;;;2.10;;
53775;SDS011;44276;49.534;6.378;2023-05-18T10:02:04;9.55;;;2.65;;
53775;SDS011;44276;49.534;6.378;2023-05-18T10:04:34;4.05;;;1.20;;
53775;SDS011;44276;49.534;6.378;2023-05-18T10:07:10;9.40;;;2.20;;
53775;SDS011;44276;49.534;6.378;2023-05-18T10:09:40;4.05;;;1.17;;
53775;SDS011;44276;49.534;6.378;2023-05-18T10:12:10;3.88;;;1.35;;
53775;SDS011;44276;49.534;6.378;2023-05-18T10:14:41;6.70;;;1.92;;
53775;SDS011;44276;49.534;6.378;2023-05-18T10:17:11;8.07;;;1.63;;
53775;SDS011;44276;49.534;6.378;2023-05-18T10:19:43;5.15;;;1.45;;
53775;SDS011;44276;49.534;6.378;2023-05-18T10:22:14;7.90;;;1.95;;
53775;SDS011;44276;49.534;6.378;2023-05-18T10:24:45;6.32;;;1.77;;
53775;SDS011;44276;49.534;6.378;2023-05-18T10:27:19;3.65;;;1.30;;
53775;SDS011;44276;49.534;6.378;2023-05-18T10:29:54;5.40;;;1.45;;
53775;SDS011;44276;49.534;6.378;2023-05-18T10:32:24;5.22;;;1.30;;
53775;SDS011;44276;49.534;6.378;2023-05-18T10:34:56;3.28;;;1.88;;
53775;SDS011;44276;49.534;6.378;2023-05-18T10:37:27;4.68;;;1.88;;
53775;SDS011;44276;49.534;6.378;2023-05-18T10:40:01;7.28;;;1.55;;
53775;SDS011;44276;49.534;6.378;2023-05-18T10:42:31;7.45;;;1.70;;
53775;SDS011;44276;49.534;6.378;2023-05-18T10:45:01;3.67;;;1.52;;
53775;SDS011;44276;49.534;6.378;2023-05-18T10:47:32;7.88;;;1.83;;
53775;SDS011;44276;49.534;6.378;2023-05-18T10:50:06;7.50;;;1.92;;
53775;SDS011;44276;49.534;6.378;2023-05-18T10:52:37;6.82;;;1.60;;
53775;SDS011;44276;49.534;6.378;2023-05-18T10:55:08;5.03;;;1.60;;
53775;SDS011;44276;49.534;6.378;2023-05-18T10:57:37;6.15;;;1.52;;
53775;SDS011;44276;49.534;6.378;2023-05-18T11:00:09;5.50;;;1.65;;
53775;SDS011;44276;49.534;6.378;2023-05-18T11:02:38;4.45;;;1.25;;
53775;SDS011;44276;49.534;6.378;2023-05-18T11:05:09;10.00;;;3.20;;
53775;SDS011;44276;49.534;6.378;2023-05-18T11:07:40;4.72;;;1.40;;
53775;SDS011;44276;49.534;6.378;2023-05-18T11:10:12;6.43;;;2.10;;
53775;SDS011;44276;49.534;6.378;2023-05-18T11:12:41;11.07;;;2.97;;
53775;SDS011;44276;49.534;6.378;2023-05-18T11:15:09;10.57;;;2.10;;
53775;SDS011;44276;49.534;6.378;2023-05-18T11:17:38;3.42;;;1.23;;
53775;SDS011;44276;49.534;6.378;2023-05-18T11:20:09;6.03;;;1.50;;
53775;SDS011;44276;49.534;6.378;2023-05-18T11:22:41;7.25;;;2.05;;
53775;SDS011;44276;49.534;6.378;2023-05-18T11:28:10;4.32;;;1.42;;
53775;SDS011;44276;49.534;6.378;2023-05-18T11:30:46;3.22;;;1.42;;
53775;SDS011;44276;49.534;6.378;2023-05-18T11:33:21;8.88;;;2.60;;
53775;SDS011;44276;49.534;6.378;2023-05-18T11:35:57;2.78;;;1.33;;
53775;SDS011;44276;49.534;6.378;2023-05-18T11:38:50;4.93;;;1.35;;
53775;SDS011;44276;49.534;6.378;2023-05-18T11:41:30;3.10;;;1.20;;
53775;SDS011;44276;49.534;6.378;2023-05-18T11:44:04;3.75;;;1.65;;
53775;SDS011;44276;49.534;6.378;2023-05-18T11:46:50;2.63;;;1.20;;
53775;SDS011;44276;49.534;6.378;2023-05-18T11:49:21;5.70;;;1.75;;
53775;SDS011;44276;49.534;6.378;2023-05-18T11:51:55;8.43;;;1.75;;
53775;SDS011;44276;49.534;6.378;2023-05-18T11:54:33;5.80;;;2.28;;
53775;SDS011;44276;49.534;6.378;2023-05-18T11:57:07;6.25;;;2.17;;
53775;SDS011;44276;49.534;6.378;2023-05-18T11:59:37;7.78;;;1.75;;
53775;SDS011;44276;49.534;6.378;2023-05-18T12:02:07;5.38;;;1.23;;
53775;SDS011;44276;49.534;6.378;2023-05-18T12:04:42;4.07;;;1.83;;
53775;SDS011;44276;49.534;6.378;2023-05-18T12:07:12;5.00;;;1.80;;
53775;SDS011;44276;49.534;6.378;2023-05-18T12:09:42;7.20;;;1.48;;
53775;SDS011;44276;49.534;6.378;2023-05-18T12:12:13;8.73;;;2.05;;
53775;SDS011;44276;49.534;6.378;2023-05-18T12:14:48;5.30;;;1.20;;
53775;SDS011;44276;49.534;6.378;2023-05-18T12:17:23;3.60;;;1.50;;
53775;SDS011;44276;49.534;6.378;2023-05-18T12:20:04;4.53;;;1.48;;
53775;SDS011;44276;49.534;6.378;2023-05-18T12:22:34;2.95;;;1.48;;
53775;SDS011;44276;49.534;6.378;2023-05-18T12:25:05;6.68;;;1.83;;
53775;SDS011;44276;49.534;6.378;2023-05-18T12:27:36;6.38;;;1.52;;
53775;SDS011;44276;49.534;6.378;2023-05-18T12:30:07;5.93;;;1.73;;
53775;SDS011;44276;49.534;6.378;2023-05-18T12:32:37;2.63;;;1.35;;
53775;SDS011;44276;49.534;6.378;2023-05-18T12:35:06;4.07;;;1.23;;
53775;SDS011;44276;49.534;6.378;2023-05-18T12:37:40;5.97;;;1.73;;
53775;SDS011;44276;49.534;6.378;2023-05-18T12:42:52;4.20;;;1.73;;
53775;SDS011;44276;49.534;6.378;2023-05-18T12:45:23;6.13;;;1.40;;
53775;SDS011;44276;49.534;6.378;2023-05-18T12:47:54;6.97;;;1.85;;
53775;SDS011;44276;49.534;6.378;2023-05-18T12:50:23;8.52;;;1.67;;
53775;SDS011;44276;49.534;6.378;2023-05-18T12:52:53;3.22;;;1.35;;
53775;SDS011;44276;49.534;6.378;2023-05-18T12:55:23;4.43;;;1.27;;
53775;SDS011;44276;49.534;6.378;2023-05-18T12:57:58;5.40;;;1.38;;
53775;SDS011;44276;49.534;6.378;2023-05-18T13:00:30;4.35;;;1.13;;
53775;SDS011;44276;49.534;6.378;2023-05-18T13:03:05;7.10;;;2.35;;
53775;SDS011;44276;49.534;6.378;2023-05-18T13:08:30;5.68;;;1.70;;
53775;SDS011;44276;49.534;6.378;2023-05-18T13:11:01;5.38;;;1.48;;
53775;SDS011;44276;49.534;6.378;2023-05-18T13:13:39;10.43;;;3.13;;
53775;SDS011;44276;49.534;6.378;2023-05-18T13:16:24;10.25;;;1.70;;
53775;SDS011;44276;49.534;6.378;2023-05-18T13:18:56;5.90;;;2.20;;
53775;SDS011;44276;49.534;6.378;2023-05-18T13:21:25;6.80;;;2.08;;
53775;SDS011;44276;49.534;6.378;2023-05-18T13:23:54;7.28;;;2.53;;
53775;SDS011;44276;49.534;6.378;2023-05-18T13:26:23;4.03;;;1.40;;
53775;SDS011;44276;49.534;6.378;2023-05-18T13:28:53;6.72;;;1.83;;
53775;SDS011;44276;49.534;6.378;2023-05-18T13:31:23;6.05;;;1.38;;
53775;SDS011;44276;49.534;6.378;2023-05-18T13:33:51;5.22;;;1.73;;
53775;SDS011;44276;49.534;6.378;2023-05-18T13:36:19;4.07;;;1.65;;
53775;SDS011;44276;49.534;6.378;2023-05-18T13:38:47;6.38;;;1.65;;
53775;SDS011;44276;49.534;6.378;2023-05-18T13:41:17;6.18;;;1.80;;
53775;SDS011;44276;49.534;6.378;2023-05-18T13:43:47;3.78;;;1.40;;
53775;SDS011;44276;49.534;6.378;2023-05-18T13:46:16;3.25;;;1.67;;
53775;SDS011;44276;49.534;6.378;2023-05-18T13:48:45;7.13;;;2.45;;
53775;SDS011;44276;49.534;6.378;2023-05-18T13:51:13;12.75;;;1.80;;
53775;SDS011;44276;49.534;6.378;2023-05-18T13:53:41;6.32;;;1.42;;
53775;SDS011;44276;49.534;6.378;2023-05-18T13:56:09;7.07;;;2.38;;
53775;SDS011;44276;49.534;6.378;2023-05-18T13:58:37;6.85;;;2.38;;
53775;SDS011;44276;49.534;6.378;2023-05-18T14:01:06;3.45;;;1.15;;
53775;SDS011;44276;49.534;6.378;2023-05-18T14:03:38;6.32;;;1.90;;
53775;SDS011;44276;49.534;6.378;2023-05-18T14:06:06;6.28;;;1.23;;
53775;SDS011;44276;49.534;6.378;2023-05-18T14:08:35;4.47;;;2.13;;
53775;SDS011;44276;49.534;6.378;2023-05-18T14:11:03;3.95;;;1.38;;
53775;SDS011;44276;49.534;6.378;2023-05-18T14:13:31;8.45;;;1.50;;
53775;SDS011;44276;49.534;6.378;2023-05-18T14:15:59;6.25;;;1.58;;
53775;SDS011;44276;49.534;6.378;2023-05-18T14:18:28;7.65;;;2.75;;
53775;SDS011;44276;49.534;6.378;2023-05-18T14:20:56;8.30;;;1.85;;
53775;SDS011;44276;49.534;6.378;2023-05-18T14:23:27;5.65;;;1.65;;
53775;SDS011;44276;49.534;6.378;2023-05-18T14:25:56;2.80;;;1.30;;
53775;SDS011;44276;49.534;6.378;2023-05-18T14:28:24;6.07;;;1.83;;
53775;SDS011;44276;49.534;6.378;2023-05-18T14:30:52;8.43;;;2.15;;
53775;SDS011;44276;49.534;6.378;2023-05-18T14:33:20;6.20;;;1.40;;
53775;SDS011;44276;49.534;6.378;2023-05-18T14:35:49;3.67;;;1.23;;
53775;SDS011;44276;49.534;6.378;2023-05-18T14:38:17;4.80;;;1.73;;
53775;SDS011;44276;49.534;6.378;2023-05-18T14:40:45;4.88;;;1.90;;
53775;SDS011;44276;49.534;6.378;2023-05-18T14:43:13;9.23;;;1.70;;
53775;SDS011;44276;49.534;6.378;2023-05-18T14:45:41;5.68;;;1.60;;
53775;SDS011;44276;49.534;6.378;2023-05-18T14:48:18;7.45;;;2.35;;
53775;SDS011;44276;49.534;6.378;2023-05-18T14:50:46;4.57;;;1.70;;
53775;SDS011;44276;49.534;6.378;2023-05-18T14:53:16;4.10;;;1.67;;
53775;SDS011;44276;49.534;6.378;2023-05-18T14:55:44;5.15;;;1.83;;
53775;SDS011;44276;49.534;6.378;2023-05-18T14:58:12;5.85;;;1.70;;
53775;SDS011;44276;49.534;6.378;2023-05-18T15:00:40;4.55;;;1.65;;
53775;SDS011;44276;49.534;6.378;2023-05-18T15:03:08;7.55;;;1.50;;
53775;SDS011;44276;49.534;6.378;2023-05-18T15:05:36;6.35;;;2.45;;
53775;SDS011;44276;49.534;6.378;2023-05-18T15:08:06;4.75;;;1.27;;
53775;SDS011;44276;49.534;6.378;2023-05-18T15:10:34;3.45;;;1.48;;